createdAt,value
2022-11-23T00:01:37.513Z,99.65
2022-11-23T00:04:12.668Z,99.21
2022-11-23T00:06:41.331Z,98.60
2022-11-23T00:09:11.229Z,96.88
2022-11-23T00:11:42.104Z,99.93
2022-11-23T00:14:10.311Z,99.89
2022-11-23T00:16:38.090Z,99.34
2022-11-23T00:19:05.985Z,96.52
2022-11-23T00:21:37.267Z,99.04
2022-11-23T00:24:05.448Z,100.00
2022-11-23T00:26:33.252Z,100.00
2022-11-23T00:29:01.417Z,100.00
2022-11-23T00:31:29.469Z,100.00
2022-11-23T00:33:58.348Z,100.00
2022-11-23T00:36:29.352Z,100.00
2022-11-23T00:39:01.457Z,98.20
2022-11-23T00:41:29.720Z,97.18
2022-11-23T00:43:57.636Z,100.00
2022-11-23T00:46:27.630Z,100.00
2022-11-23T00:48:57.680Z,100.00
2022-11-23T00:51:34.479Z,100.00
2022-11-23T00:54:05.602Z,99.12
2022-11-23T00:56:35.434Z,97.64
2022-11-23T00:59:04.496Z,98.13
2022-11-23T01:01:39.663Z,99.99
2022-11-23T01:04:09.460Z,97.88
2022-11-23T01:06:39.972Z,100.00
2022-11-23T01:09:14.852Z,97.86
2022-11-23T01:11:42.697Z,97.42
2022-11-23T01:14:11.965Z,100.00
2022-11-23T01:16:42.020Z,99.29
2022-11-23T01:19:18.141Z,100.00
2022-11-23T01:21:48.370Z,99.58
2022-11-23T01:24:19.285Z,100.00
2022-11-23T01:26:54.426Z,100.00
2022-11-23T01:29:24.302Z,100.00
2022-11-23T01:31:52.272Z,100.00
2022-11-23T01:34:23.173Z,100.00
2022-11-23T01:36:51.425Z,100.00
2022-11-23T01:39:19.373Z,100.00
2022-11-23T01:41:47.304Z,100.00
2022-11-23T01:44:33.827Z,100.00
2022-11-23T01:47:09.952Z,100.00
2022-11-23T01:49:49.772Z,100.00
2022-11-23T01:52:23.504Z,100.00
2022-11-23T01:54:57.406Z,100.00
2022-11-23T01:57:35.158Z,100.00
2022-11-23T02:00:04.875Z,100.00
2022-11-23T02:02:46.862Z,100.00
2022-11-23T02:05:21.822Z,100.00
2022-11-23T02:07:50.329Z,100.00
2022-11-23T02:10:20.011Z,100.00
2022-11-23T02:12:47.945Z,100.00
2022-11-23T02:15:36.614Z,100.00
2022-11-23T02:18:11.033Z,100.00
2022-11-23T02:20:39.685Z,100.00
2022-11-23T02:23:07.509Z,100.00
2022-11-23T02:25:44.821Z,100.00
2022-11-23T02:28:18.371Z,100.00
2022-11-23T02:30:49.119Z,100.00
2022-11-23T02:33:17.503Z,100.00
2022-11-23T02:35:51.197Z,100.00
2022-11-23T02:38:20.414Z,100.00
2022-11-23T02:40:48.471Z,100.00
2022-11-23T02:46:05.173Z,100.00
2022-11-23T02:48:32.814Z,100.00
2022-11-23T02:51:03.997Z,100.00
2022-11-23T02:53:32.158Z,100.00
2022-11-23T02:55:59.988Z,100.00
2022-11-23T02:58:27.887Z,100.00
2022-11-23T03:00:56.221Z,100.00
2022-11-23T03:03:23.944Z,100.00
2022-11-23T03:05:51.780Z,100.00
2022-11-23T03:08:20.409Z,100.00
2022-11-23T03:10:49.136Z,100.00
2022-11-23T03:13:17.033Z,100.00
2022-11-23T03:15:48.505Z,100.00
2022-11-23T03:18:16.624Z,100.00
2022-11-23T03:20:44.759Z,100.00
2022-11-23T03:23:12.884Z,100.00
2022-11-23T03:25:44.180Z,100.00
2022-11-23T03:28:13.983Z,100.00
2022-11-23T03:30:43.748Z,100.00
2022-11-23T03:33:11.780Z,100.00
2022-11-23T03:35:40.729Z,100.00
2022-11-23T03:38:11.212Z,100.00
2022-11-23T03:40:39.525Z,100.00
2022-11-23T03:43:11.645Z,100.00
2022-11-23T03:45:39.670Z,100.00
2022-11-23T03:48:08.492Z,100.00
2022-11-23T03:50:36.410Z,100.00
2022-11-23T03:53:04.381Z,100.00
2022-11-23T03:55:34.796Z,100.00
2022-11-23T03:58:03.549Z,100.00
2022-11-23T04:00:32.771Z,100.00
2022-11-23T04:03:04.759Z,100.00
2022-11-23T04:05:45.220Z,100.00
2022-11-23T04:08:14.617Z,100.00
2022-11-23T04:10:43.213Z,100.00
2022-11-23T04:13:13.249Z,100.00
2022-11-23T04:15:41.599Z,100.00
2022-11-23T04:18:09.733Z,100.00
2022-11-23T04:20:38.642Z,100.00
2022-11-23T04:23:11.756Z,100.00
2022-11-23T04:25:41.219Z,100.00
2022-11-23T04:28:10.503Z,100.00
2022-11-23T04:30:38.832Z,100.00
2022-11-23T04:33:07.084Z,100.00
2022-11-23T04:35:37.330Z,100.00
2022-11-23T04:38:07.886Z,100.00
2022-11-23T04:40:39.984Z,100.00
2022-11-23T04:43:09.899Z,100.00
2022-11-23T04:45:40.320Z,100.00
2022-11-23T04:48:08.592Z,100.00
2022-11-23T04:50:40.379Z,100.00
2022-11-23T04:53:09.686Z,100.00
2022-11-23T04:55:38.255Z,100.00
2022-11-23T04:58:06.627Z,100.00
2022-11-23T05:00:35.122Z,100.00
2022-11-23T05:03:03.696Z,100.00
2022-11-23T05:05:32.012Z,100.00
2022-11-23T05:08:03.518Z,100.00
2022-11-23T05:10:32.715Z,100.00
2022-11-23T05:13:01.629Z,100.00
2022-11-23T05:15:30.001Z,100.00
2022-11-23T05:18:05.057Z,100.00
2022-11-23T05:20:34.553Z,100.00
2022-11-23T05:23:02.397Z,100.00
2022-11-23T05:25:30.986Z,100.00
2022-11-23T05:28:07.542Z,100.00
2022-11-23T05:30:45.868Z,100.00
2022-11-23T05:33:17.663Z,100.00
2022-11-23T05:35:46.279Z,100.00
2022-11-23T05:38:16.490Z,100.00
2022-11-23T05:40:46.325Z,100.00
2022-11-23T05:43:14.982Z,100.00
2022-11-23T05:45:43.708Z,100.00
2022-11-23T05:48:11.942Z,100.00
2022-11-23T05:50:41.341Z,100.00
2022-11-23T05:53:17.421Z,100.00
2022-11-23T05:55:46.693Z,100.00
2022-11-23T05:58:17.833Z,100.00
2022-11-23T06:00:46.084Z,100.00
2022-11-23T06:03:14.995Z,100.00
2022-11-23T06:05:47.777Z,100.00
2022-11-23T06:08:18.087Z,100.00
2022-11-23T06:10:48.799Z,100.00
2022-11-23T06:13:17.094Z,100.00
2022-11-23T06:15:45.475Z,100.00
2022-11-23T06:18:14.386Z,100.00
2022-11-23T06:20:43.879Z,100.00
2022-11-23T06:23:12.661Z,100.00
2022-11-23T06:25:41.126Z,100.00
2022-11-23T06:28:09.765Z,100.00
2022-11-23T06:30:39.203Z,100.00
2022-11-23T06:33:07.489Z,100.00
2022-11-23T06:35:37.015Z,100.00
2022-11-23T06:38:05.660Z,100.00
2022-11-23T06:40:34.517Z,100.00
2022-11-23T06:43:04.012Z,100.00
2022-11-23T06:45:32.819Z,100.00
2022-11-23T06:48:01.310Z,100.00
2022-11-23T06:50:30.460Z,100.00
2022-11-23T06:52:58.881Z,100.00
2022-11-23T06:55:27.442Z,100.00
2022-11-23T06:57:58.934Z,100.00
2022-11-23T07:00:26.846Z,100.00
2022-11-23T07:02:56.823Z,100.00
2022-11-23T07:05:25.272Z,100.00
2022-11-23T07:07:54.273Z,100.00
2022-11-23T07:10:23.215Z,100.00
2022-11-23T07:12:51.376Z,100.00
2022-11-23T07:15:20.761Z,100.00
2022-11-23T07:17:52.340Z,100.00
2022-11-23T07:20:20.631Z,100.00
2022-11-23T07:22:48.767Z,100.00
2022-11-23T07:25:19.278Z,100.00
2022-11-23T07:27:47.129Z,100.00
2022-11-23T07:30:15.748Z,100.00
2022-11-23T07:32:43.859Z,100.00
2022-11-23T07:35:13.061Z,100.00
2022-11-23T07:37:42.224Z,100.00
2022-11-23T07:40:10.986Z,100.00
2022-11-23T07:42:45.083Z,100.00
2022-11-23T07:45:13.976Z,100.00
2022-11-23T07:47:43.670Z,100.00
2022-11-23T07:50:13.135Z,100.00
2022-11-23T07:52:41.939Z,100.00
2022-11-23T07:55:09.968Z,100.00
2022-11-23T07:57:37.778Z,100.00
2022-11-23T08:00:06.614Z,100.00
2022-11-23T08:02:57.727Z,100.00
2022-11-23T08:05:26.994Z,100.00
2022-11-23T08:08:01.570Z,100.00
2022-11-23T08:10:31.359Z,100.00
2022-11-23T08:13:00.156Z,100.00
2022-11-23T08:15:28.581Z,100.00
2022-11-23T08:17:58.056Z,100.00
2022-11-23T08:20:26.936Z,100.00
2022-11-23T08:22:56.214Z,100.00
2022-11-23T08:25:26.178Z,100.00
2022-11-23T08:28:02.153Z,100.00
2022-11-23T08:30:32.186Z,100.00
2022-11-23T08:33:07.860Z,100.00
2022-11-23T08:35:37.579Z,100.00
2022-11-23T08:38:06.692Z,100.00
2022-11-23T08:40:35.052Z,100.00
2022-11-23T08:43:03.412Z,100.00
2022-11-23T08:45:31.333Z,100.00
2022-11-23T08:48:04.166Z,100.00
2022-11-23T08:50:34.727Z,100.00
2022-11-23T08:53:02.590Z,100.00
2022-11-23T08:55:30.471Z,100.00
2022-11-23T08:57:59.791Z,100.00
2022-11-23T09:00:31.114Z,100.00
2022-11-23T09:02:59.720Z,100.00
2022-11-23T09:05:28.430Z,100.00
2022-11-23T09:07:59.660Z,100.00
2022-11-23T09:10:28.050Z,100.00
2022-11-23T09:12:59.716Z,100.00
2022-11-23T09:15:28.020Z,100.00
2022-11-23T09:17:57.269Z,100.00
2022-11-23T09:20:25.591Z,100.00
2022-11-23T09:22:55.169Z,100.00
2022-11-23T09:25:23.583Z,100.00
2022-11-23T09:27:59.065Z,100.00
2022-11-23T09:30:28.208Z,100.00
2022-11-23T09:32:58.270Z,100.00
2022-11-23T09:35:26.543Z,100.00
2022-11-23T09:37:59.422Z,100.00
2022-11-23T09:40:36.583Z,100.00
2022-11-23T09:43:29.449Z,100.00
2022-11-23T09:46:03.338Z,100.00
2022-11-23T09:49:12.659Z,99.90
2022-11-23T09:51:42.208Z,99.79
2022-11-23T09:54:37.976Z,100.00
2022-11-23T09:57:06.123Z,100.00
2022-11-23T09:59:40.597Z,99.75
2022-11-23T10:02:21.919Z,99.62
2022-11-23T10:04:52.973Z,99.81
2022-11-23T10:07:49.697Z,99.27
2022-11-23T10:10:39.265Z,99.71
2022-11-23T10:13:23.820Z,99.88
2022-11-23T10:16:14.069Z,100.00
2022-11-23T10:18:49.450Z,99.23
2022-11-23T10:21:35.314Z,99.14
2022-11-23T10:24:20.398Z,100.00
2022-11-23T10:26:51.755Z,100.00
2022-11-23T10:29:36.544Z,100.00
2022-11-23T10:32:14.562Z,99.59
2022-11-23T10:35:02.956Z,99.53
2022-11-23T10:37:32.557Z,100.00
2022-11-23T10:40:00.511Z,99.55
2022-11-23T10:42:42.587Z,100.00
2022-11-23T10:45:28.232Z,100.00
2022-11-23T10:48:00.663Z,100.00
2022-11-23T10:50:34.118Z,100.00
2022-11-23T10:53:22.786Z,100.00
2022-11-23T10:55:55.323Z,100.00
2022-11-23T10:58:35.372Z,100.00
2022-11-23T11:01:24.977Z,100.00
2022-11-23T11:03:56.965Z,100.00
2022-11-23T11:06:27.688Z,100.00
2022-11-23T11:09:03.733Z,100.00
2022-11-23T11:11:35.665Z,100.00
2022-11-23T11:14:23.754Z,100.00
2022-11-23T11:16:54.336Z,100.00
2022-11-23T11:19:36.777Z,100.00
2022-11-23T11:22:34.106Z,100.00
2022-11-23T11:25:06.152Z,100.00
2022-11-23T11:27:35.041Z,100.00
2022-11-23T11:30:21.363Z,100.00
2022-11-23T11:33:09.839Z,100.00
2022-11-23T11:35:41.579Z,100.00
2022-11-23T11:38:16.359Z,100.00
2022-11-23T11:40:50.401Z,100.00
2022-11-23T11:43:32.390Z,100.00
2022-11-23T11:46:36.905Z,100.00
2022-11-23T11:49:19.826Z,100.00
2022-11-23T11:51:53.551Z,100.00
2022-11-23T11:54:30.668Z,100.00
2022-11-23T11:57:23.800Z,100.00
2022-11-23T11:59:58.738Z,100.00
2022-11-23T12:02:43.737Z,100.00
2022-11-23T12:05:24.740Z,100.00
2022-11-23T12:08:18.758Z,100.00
2022-11-23T12:10:50.036Z,100.00
2022-11-23T12:13:22.656Z,100.00
2022-11-23T12:16:15.825Z,100.00
2022-11-23T12:19:05.758Z,100.00
2022-11-23T12:22:10.909Z,100.00
2022-11-23T12:24:55.056Z,100.00
2022-11-23T12:27:23.601Z,100.00
2022-11-23T12:30:13.006Z,100.00
2022-11-23T12:32:59.860Z,100.00
2022-11-23T12:36:09.979Z,100.00
2022-11-23T12:38:54.894Z,100.00
2022-11-23T12:41:39.621Z,100.00
2022-11-23T12:44:25.918Z,100.00
2022-11-23T12:46:53.632Z,100.00
2022-11-23T12:49:42.296Z,100.00
2022-11-23T12:52:24.899Z,100.00
2022-11-23T12:55:21.028Z,100.00
2022-11-23T12:58:17.229Z,100.00
2022-11-23T13:00:55.882Z,100.00
2022-11-23T13:03:45.144Z,100.00
2022-11-23T13:06:16.016Z,100.00
2022-11-23T13:08:49.577Z,100.00
2022-11-23T13:11:41.562Z,100.00
2022-11-23T13:14:15.444Z,100.00
2022-11-23T13:17:05.381Z,100.00
2022-11-23T13:19:36.053Z,100.00
2022-11-23T13:22:08.856Z,100.00
2022-11-23T13:24:41.039Z,100.00
2022-11-23T13:27:15.318Z,100.00
2022-11-23T13:29:50.551Z,100.00
2022-11-23T13:32:43.082Z,100.00
2022-11-23T13:35:17.224Z,100.00
2022-11-23T13:37:57.317Z,100.00
2022-11-23T13:40:37.049Z,100.00
2022-11-23T13:43:18.172Z,100.00
2022-11-23T13:45:46.353Z,100.00
2022-11-23T13:48:49.074Z,100.00
2022-11-23T13:51:08.621Z,100.00
2022-11-23T13:53:42.941Z,100.00
2022-11-23T13:56:43.231Z,100.00
2022-11-23T13:59:30.619Z,100.00
2022-11-23T14:02:07.957Z,100.00
2022-11-23T14:04:41.920Z,100.00
2022-11-23T14:07:19.485Z,100.00
2022-11-23T14:10:06.740Z,100.00
2022-11-23T14:12:57.099Z,100.00
2022-11-23T14:15:29.537Z,100.00
2022-11-23T14:18:36.966Z,100.00
2022-11-23T14:21:13.966Z,100.00
2022-11-23T14:24:22.944Z,100.00
2022-11-23T14:27:45.089Z,100.00
2022-11-23T14:30:23.253Z,100.00
2022-11-23T14:33:08.499Z,100.00
2022-11-23T14:36:06.713Z,100.00
2022-11-23T14:39:17.722Z,100.00
2022-11-23T14:41:51.184Z,100.00
2022-11-23T14:44:24.148Z,100.00
2022-11-23T14:47:06.702Z,100.00
2022-11-23T14:49:35.584Z,100.00
2022-11-23T14:52:06.127Z,100.00
2022-11-23T14:54:35.587Z,100.00
2022-11-23T14:57:05.307Z,100.00
2022-11-23T14:59:41.267Z,100.00
2022-11-23T15:02:26.519Z,100.00
2022-11-23T15:05:08.069Z,100.00
2022-11-23T15:07:56.453Z,100.00
2022-11-23T15:10:45.154Z,100.00
2022-11-23T15:13:22.174Z,100.00
2022-11-23T15:15:55.512Z,100.00
2022-11-23T15:18:35.594Z,100.00
2022-11-23T15:21:14.694Z,100.00
2022-11-23T15:23:54.348Z,100.00
2022-11-23T15:26:46.692Z,100.00
2022-11-23T15:29:34.014Z,100.00
2022-11-23T15:32:28.532Z,100.00
2022-11-23T15:34:54.175Z,100.00
2022-11-23T15:37:23.816Z,100.00
2022-11-23T15:39:54.201Z,100.00
2022-11-23T15:42:25.883Z,100.00
2022-11-23T15:44:54.747Z,100.00
2022-11-23T15:47:31.279Z,100.00
2022-11-23T15:50:03.402Z,100.00
2022-11-23T15:52:36.110Z,100.00
2022-11-23T15:55:13.222Z,100.00
2022-11-23T15:57:42.112Z,100.00
2022-11-23T16:00:25.244Z,100.00
2022-11-23T16:03:16.064Z,100.00
2022-11-23T16:05:43.992Z,100.00
2022-11-23T16:08:25.658Z,100.00
2022-11-23T16:10:55.537Z,100.00
2022-11-23T16:13:38.532Z,100.00
2022-11-23T16:16:15.288Z,100.00
2022-11-23T16:18:49.016Z,100.00
2022-11-23T16:21:19.956Z,100.00
2022-11-23T16:23:55.755Z,100.00
2022-11-23T16:26:34.330Z,100.00
2022-11-23T16:29:03.914Z,100.00
2022-11-23T16:31:40.739Z,100.00
2022-11-23T16:34:18.129Z,100.00
2022-11-23T16:36:46.642Z,100.00
2022-11-23T16:39:14.842Z,100.00
2022-11-23T16:41:42.525Z,100.00
2022-11-23T16:44:10.325Z,100.00
2022-11-23T16:46:43.277Z,100.00
2022-11-23T16:49:23.869Z,100.00
2022-11-23T16:51:57.075Z,100.00
2022-11-23T16:54:25.759Z,100.00
2022-11-23T16:56:54.213Z,100.00
2022-11-23T16:59:24.044Z,100.00
2022-11-23T17:01:56.950Z,100.00
2022-11-23T17:04:26.297Z,100.00
2022-11-23T17:06:54.110Z,100.00
2022-11-23T17:09:21.767Z,100.00
2022-11-23T17:11:52.608Z,100.00
2022-11-23T17:14:24.101Z,100.00
2022-11-23T17:16:55.199Z,100.00
2022-11-23T17:19:23.480Z,100.00
2022-11-23T17:24:36.771Z,100.00
2022-11-23T17:27:04.538Z,100.00
2022-11-23T17:29:35.612Z,100.00
2022-11-23T17:32:06.850Z,100.00
2022-11-23T17:34:34.530Z,100.00
2022-11-23T17:37:02.373Z,100.00
2022-11-23T17:39:31.210Z,100.00
2022-11-23T17:44:44.937Z,100.00
2022-11-23T17:47:24.449Z,100.00
2022-11-23T17:49:53.181Z,100.00
2022-11-23T17:52:21.513Z,100.00
2022-11-23T17:54:49.278Z,100.00
2022-11-23T17:57:20.405Z,100.00
2022-11-23T17:59:48.140Z,100.00
2022-11-23T18:02:16.690Z,100.00
2022-11-23T18:04:44.827Z,100.00
2022-11-23T18:07:16.945Z,100.00
2022-11-23T18:09:45.126Z,100.00
2022-11-23T18:12:12.768Z,100.00
2022-11-23T18:20:11.786Z,100.00
2022-11-23T18:22:39.952Z,100.00
2022-11-23T18:25:08.328Z,100.00
2022-11-23T18:27:36.043Z,100.00
2022-11-23T18:30:04.881Z,100.00
2022-11-23T18:32:33.000Z,100.00
2022-11-23T18:35:00.712Z,100.00
2022-11-23T18:37:29.296Z,100.00
2022-11-23T18:39:57.078Z,100.00
2022-11-23T18:42:24.776Z,100.00
2022-11-23T18:44:52.839Z,100.00
2022-11-23T18:47:20.569Z,100.00
2022-11-23T18:49:48.306Z,100.00
2022-11-23T18:52:17.414Z,100.00
2022-11-23T18:54:45.099Z,100.00
2022-11-23T18:57:16.759Z,99.79
2022-11-23T19:00:00.865Z,99.50
2022-11-23T19:02:31.323Z,99.81
2022-11-23T19:04:59.440Z,99.79
2022-11-23T19:07:27.636Z,99.79
2022-11-23T19:09:55.465Z,100.00
2022-11-23T19:12:23.957Z,99.44
2022-11-23T19:14:51.594Z,99.49
2022-11-23T19:17:19.594Z,99.46
2022-11-23T19:19:47.658Z,99.28
2022-11-23T19:22:15.393Z,98.91
2022-11-23T19:24:43.344Z,98.78
2022-11-23T19:27:11.362Z,98.67
2022-11-23T19:29:39.195Z,98.86
2022-11-23T19:32:07.074Z,98.77
2022-11-23T19:34:35.392Z,98.98
2022-11-23T19:37:03.112Z,98.66
2022-11-23T19:39:30.895Z,98.75
2022-11-23T19:41:59.272Z,99.32
2022-11-23T19:44:26.932Z,98.71
2022-11-23T19:46:54.859Z,98.82
2022-11-23T19:49:22.926Z,100.00
2022-11-23T19:51:52.930Z,98.24
2022-11-23T19:54:20.680Z,98.55
2022-11-23T19:56:50.692Z,99.08
2022-11-23T19:59:18.635Z,99.37
2022-11-23T20:01:46.436Z,98.38
2022-11-23T20:04:14.750Z,98.23
2022-11-23T20:06:42.725Z,98.88
2022-11-23T20:09:19.674Z,99.16
2022-11-23T20:11:51.227Z,99.69
2022-11-23T20:14:20.095Z,99.07
2022-11-23T20:16:48.629Z,99.21
2022-11-23T20:19:16.503Z,100.00
2022-11-23T20:21:44.427Z,99.10
2022-11-23T20:24:14.159Z,99.55
2022-11-23T20:26:43.150Z,97.75
2022-11-23T20:29:11.357Z,98.52
2022-11-23T20:31:39.709Z,99.40
2022-11-23T20:34:10.014Z,98.73
2022-11-23T20:36:40.559Z,98.66
2022-11-23T20:39:11.446Z,100.00
2022-11-23T20:41:39.584Z,97.17
2022-11-23T20:44:11.745Z,98.39
2022-11-23T20:49:28.263Z,98.55
2022-11-23T20:51:55.977Z,98.70
2022-11-23T20:54:23.915Z,98.38
2022-11-23T20:56:55.107Z,100.00
2022-11-23T20:59:24.142Z,97.92
2022-11-23T21:01:52.644Z,99.64
2022-11-23T21:04:20.421Z,98.35
2022-11-23T21:06:48.077Z,96.95
2022-11-23T21:09:17.367Z,97.65
2022-11-23T21:12:03.437Z,98.31
2022-11-23T21:14:33.168Z,97.93
2022-11-23T21:17:01.655Z,98.21
2022-11-23T21:19:37.855Z,98.11
2022-11-23T21:22:08.723Z,98.44
2022-11-23T21:24:37.049Z,98.17
2022-11-23T21:27:06.567Z,97.99
2022-11-23T21:29:35.147Z,99.58
2022-11-23T21:32:02.926Z,98.90
2022-11-23T21:34:31.817Z,97.57
2022-11-23T21:37:00.637Z,98.15
2022-11-23T21:39:31.190Z,98.75
2022-11-23T21:41:59.420Z,97.52
2022-11-23T21:44:27.762Z,97.88
2022-11-23T21:46:55.784Z,96.87
2022-11-23T21:49:23.598Z,96.84
2022-11-23T21:51:51.777Z,97.04
2022-11-23T21:54:22.733Z,96.80
2022-11-23T21:56:50.594Z,96.71
2022-11-23T21:59:18.999Z,96.84
2022-11-23T22:01:46.859Z,97.51
2022-11-23T22:04:16.532Z,96.95
2022-11-23T22:06:45.721Z,97.38
2022-11-23T22:09:14.042Z,97.34
2022-11-23T22:11:45.365Z,97.12
2022-11-23T22:14:15.743Z,97.53
2022-11-23T22:16:54.754Z,98.21
2022-11-23T22:19:23.209Z,98.00
2022-11-23T22:21:54.661Z,97.13
2022-11-23T22:24:23.028Z,98.74
2022-11-23T22:26:51.240Z,97.13
2022-11-23T22:29:19.185Z,97.18
2022-11-23T22:31:47.173Z,97.19
2022-11-23T22:34:15.639Z,97.39
2022-11-23T22:36:43.836Z,97.64
2022-11-23T22:39:11.953Z,96.87
2022-11-23T22:41:40.192Z,96.79
2022-11-23T22:44:10.393Z,96.65
2022-11-23T22:46:39.413Z,97.22
2022-11-23T22:49:07.908Z,96.54
2022-11-23T22:51:39.199Z,96.87
2022-11-23T22:54:07.538Z,96.85
2022-11-23T22:56:35.442Z,96.82
2022-11-23T22:59:03.658Z,96.59
2022-11-23T23:01:32.527Z,96.24
2022-11-23T23:04:03.304Z,97.00
2022-11-23T23:06:35.131Z,96.83
2022-11-23T23:09:05.915Z,96.80
2022-11-23T23:11:35.104Z,96.49
2022-11-23T23:14:06.593Z,96.78
2022-11-23T23:16:38.161Z,96.18
2022-11-23T23:19:06.658Z,98.92
2022-11-23T23:21:35.068Z,96.84
2022-11-23T23:24:03.107Z,97.95
2022-11-23T23:26:31.038Z,97.39
2022-11-23T23:29:00.767Z,96.70
2022-11-23T23:31:30.168Z,98.92
2022-11-23T23:33:59.795Z,95.34
2022-11-23T23:36:28.532Z,97.11
2022-11-23T23:38:57.820Z,96.59
2022-11-23T23:41:25.980Z,96.28
2022-11-23T23:43:54.318Z,96.88
2022-11-23T23:46:22.780Z,96.94
2022-11-23T23:48:50.783Z,96.07
2022-11-23T23:51:22.254Z,96.28
2022-11-23T23:53:51.680Z,96.04
2022-11-23T23:56:25.666Z,98.53
2022-11-23T23:58:57.139Z,95.78
